Terminal Aerodrome Forecast
Issued by NWS

Current Version | Previous Version | Text Only | Print | Product List | Glossary On
Versions: 1 2 3 4 5 6 7 8 9 10 11 12 13 14 15 16 17 18 19
000
FTUS41 KCAR 251300 AAA
TAFFVE
TAF AMD
KFVE 251317Z 2513/2612 01007KT P6SM OVC040
     FM251700 01006KT P6SM OVC035
     FM260300 08006KT 5SM -SHRA BR OVC020
     FM260800 09005KT 3SM -SHRA BR OVC008=

USA.gov is the U.S. government's official web portal to all federal, state and local government web resources and services.